Time;durP1;ratioP1;P1;durP2;ratioP2;P2;SDS_P1;SDS_P2;PMS_P1;PMS_P2;Temp;Humidity;BMP_temperature;BMP_pressure;BME280_temperature;BME280_humidity;BME280_pressure;Samples;Min_cycle;Max_cycle;Signal;HPM_P1;HPM_P2
2022/07/02 00:01:49;;;;;;;6.88;3.03;;;;;;;;;;5012002;28;20021;-40
2022/07/02 00:04:20;;;;;;;5.25;2.72;;;;;;;;;;5011635;28;20058;-40
2022/07/02 00:06:47;;;;;;;6.25;3.13;;;;;;;;;;5011255;28;20533;-41
2022/07/02 00:09:13;;;;;;;12.10;3.03;;;;;;;;;;5011138;28;20455;-40
2022/07/02 00:11:39;;;;;;;6.78;2.42;;;;;;;;;;5012274;28;20044;-40
2022/07/02 00:14:04;;;;;;;8.27;2.80;;;;;;;;;;5014849;28;20025;-41
2022/07/02 00:16:30;;;;;;;9.48;2.53;;;;;;;;;;5014814;28;20100;-41
2022/07/02 00:18:55;;;;;;;8.75;3.30;;;;;;;;;;5014797;28;20133;-41
2022/07/02 00:21:21;;;;;;;12.27;2.45;;;;;;;;;;5014980;28;20061;-41
2022/07/02 00:23:47;;;;;;;7.60;3.42;;;;;;;;;;5014591;28;20025;-41
2022/07/02 00:26:25;;;;;;;8.35;2.83;;;;;;;;;;5014666;28;20041;-42
2022/07/02 00:28:55;;;;;;;12.13;3.25;;;;;;;;;;5014905;28;20037;-41
2022/07/02 00:31:21;;;;;;;9.32;2.72;;;;;;;;;;5029679;28;20046;-41
2022/07/02 00:33:47;;;;;;;6.68;2.63;;;;;;;;;;5014438;28;20030;-40
2022/07/02 00:36:21;;;;;;;13.45;3.00;;;;;;;;;;5014450;28;20468;-41
2022/07/02 00:38:48;;;;;;;11.32;3.80;;;;;;;;;;5014332;28;20026;-41
2022/07/02 00:41:14;;;;;;;7.53;2.78;;;;;;;;;;5014989;28;20037;-40
2022/07/02 00:43:40;;;;;;;7.57;2.65;;;;;;;;;;5014249;28;20033;-41
2022/07/02 00:46:05;;;;;;;5.75;2.85;;;;;;;;;;5014586;28;20072;-42
2022/07/02 00:48:30;;;;;;;12.32;3.22;;;;;;;;;;5014574;28;20029;-40
2022/07/02 00:50:56;;;;;;;5.82;2.40;;;;;;;;;;5014022;28;20033;-41
2022/07/02 00:53:21;;;;;;;7.75;2.60;;;;;;;;;;5014725;28;20018;-41
2022/07/02 00:55:54;;;;;;;7.60;3.13;;;;;;;;;;5014414;28;20026;-41
2022/07/02 00:58:19;;;;;;;;;;;;;;;;;;5014794;28;20053;-40
2022/07/02 01:00:44;;;;;;;7.68;2.88;;;;;;;;;;5014038;28;20393;-41
2022/07/02 01:03:10;;;;;;;7.90;3.03;;;;;;;;;;5013894;28;20137;-41
2022/07/02 01:05:36;;;;;;;4.70;2.28;;;;;;;;;;5013902;28;20034;-40
2022/07/02 01:10:49;;;;;;;5.05;2.55;;;;;;;;;;5014096;28;20117;-42
2022/07/02 01:13:15;;;;;;;6.82;2.53;;;;;;;;;;5013758;28;20634;-40
2022/07/02 01:15:40;;;;;;;12.15;3.65;;;;;;;;;;5013678;28;20042;-41
2022/07/02 01:18:06;;;;;;;16.67;3.50;;;;;;;;;;5013770;28;20018;-41
2022/07/02 01:20:31;;;;;;;6.05;2.95;;;;;;;;;;5013575;28;20065;-43
2022/07/02 01:22:57;;;;;;;9.15;2.72;;;;;;;;;;5013242;28;20022;-40
2022/07/02 01:25:22;;;;;;;8.13;2.90;;;;;;;;;;5028817;28;20033;-40
2022/07/02 01:27:48;;;;;;;9.23;2.15;;;;;;;;;;5013440;28;20013;-41
2022/07/02 01:30:13;;;;;;;10.45;3.22;;;;;;;;;;5013452;28;20084;-41
2022/07/02 01:32:38;;;;;;;5.80;2.97;;;;;;;;;;5013759;28;20029;-41
2022/07/02 01:35:05;;;;;;;8.55;2.90;;;;;;;;;;5013304;28;20030;-41
2022/07/02 01:37:31;;;;;;;8.55;2.40;;;;;;;;;;5013456;28;20096;-41
2022/07/02 01:39:56;;;;;;;9.75;3.25;;;;;;;;;;5013277;28;20423;-41
2022/07/02 01:42:21;;;;;;;4.65;2.85;;;;;;;;;;5013293;28;20491;-41
2022/07/02 01:44:47;;;;;;;7.38;3.05;;;;;;;;;;5013423;28;20026;-41
2022/07/02 01:47:12;;;;;;;7.63;3.08;;;;;;;;;;5013166;28;20057;-41
2022/07/02 01:49:38;;;;;;;11.13;3.33;;;;;;;;;;5013346;28;20026;-41
2022/07/02 01:52:04;;;;;;;5.80;2.67;;;;;;;;;;5013348;28;20136;-41
2022/07/02 01:54:30;;;;;;;7.28;2.72;;;;;;;;;;5013115;28;20395;-41
2022/07/02 01:56:55;;;;;;;8.95;3.28;;;;;;;;;;5013225;28;20026;-40
2022/07/02 01:59:21;;;;;;;7.32;2.67;;;;;;;;;;5013044;28;20565;-41
2022/07/02 02:01:47;;;;;;;6.20;2.75;;;;;;;;;;5013152;28;20026;-41
2022/07/02 02:04:12;;;;;;;4.65;3.28;;;;;;;;;;5011493;28;20081;-42
2022/07/02 02:06:38;;;;;;;6.72;2.17;;;;;;;;;;5012761;28;20034;-41
2022/07/02 02:09:04;;;;;;;4.85;2.90;;;;;;;;;;5012880;28;20030;-40
2022/07/02 02:11:29;;;;;;;7.25;3.22;;;;;;;;;;5012689;28;20468;-40
2022/07/02 02:13:58;;;;;;;3.58;2.28;;;;;;;;;;5012596;28;20411;-41
2022/07/02 02:16:26;;;;;;;7.47;2.65;;;;;;;;;;5012593;28;20026;-43
2022/07/02 02:18:53;;;;;;;9.02;2.55;;;;;;;;;;5012652;28;20026;-40
2022/07/02 02:21:18;;;;;;;9.27;2.58;;;;;;;;;;5012645;28;20160;-41
2022/07/02 02:23:44;;;;;;;10.05;3.08;;;;;;;;;;5012388;28;20790;-41
2022/07/02 02:26:09;;;;;;;6.32;2.03;;;;;;;;;;5012507;28;20144;-41
2022/07/02 02:28:34;;;;;;;5.75;2.17;;;;;;;;;;5012534;28;20068;-40
2022/07/02 02:31:00;;;;;;;7.93;2.22;;;;;;;;;;5012260;28;20061;-41
2022/07/02 02:33:25;;;;;;;6.93;2.38;;;;;;;;;;5012316;28;20030;-40
2022/07/02 02:35:50;;;;;;;8.93;2.80;;;;;;;;;;5011841;28;20018;-40
2022/07/02 02:38:16;;;;;;;5.82;2.97;;;;;;;;;;5012261;28;20025;-41
2022/07/02 02:40:42;;;;;;;8.18;2.35;;;;;;;;;;5012458;28;20018;-40
2022/07/02 02:43:07;;;;;;;9.93;2.75;;;;;;;;;;5012209;28;20030;-40
2022/07/02 02:45:33;;;;;;;7.28;2.40;;;;;;;;;;5012080;28;20017;-41
2022/07/02 02:47:58;;;;;;;6.90;3.25;;;;;;;;;;5012055;28;20057;-40
2022/07/02 02:50:24;;;;;;;6.50;2.60;;;;;;;;;;5012095;28;20030;-40
2022/07/02 02:52:49;;;;;;;5.20;2.75;;;;;;;;;;5011972;28;20037;-40
2022/07/02 02:55:14;;;;;;;6.10;2.28;;;;;;;;;;5012026;28;20025;-41
2022/07/02 02:57:40;;;;;;;7.88;2.30;;;;;;;;;;5012012;28;20399;-41
2022/07/02 03:00:05;;;;;;;6.07;1.92;;;;;;;;;;5010626;28;20028;-41
2022/07/02 03:02:31;;;;;;;4.45;2.83;;;;;;;;;;5011683;28;20034;-40
2022/07/02 03:04:56;;;;;;;4.85;2.20;;;;;;;;;;5011956;28;20048;-40
2022/07/02 03:07:21;;;;;;;5.10;2.15;;;;;;;;;;5011731;28;20033;-40
2022/07/02 03:09:47;;;;;;;3.40;2.35;;;;;;;;;;5011875;28;20033;-41
2022/07/02 03:12:12;;;;;;;4.88;2.30;;;;;;;;;;5011742;28;20037;-41
2022/07/02 03:14:38;;;;;;;4.43;2.05;;;;;;;;;;5011917;28;20091;-41
2022/07/02 03:17:03;;;;;;;7.95;2.90;;;;;;;;;;5012038;28;20038;-41
2022/07/02 03:19:28;;;;;;;8.15;1.95;;;;;;;;;;5011760;28;20026;-41
2022/07/02 03:21:54;;;;;;;6.82;2.55;;;;;;;;;;5011838;28;20038;-40
2022/07/02 03:24:20;;;;;;;6.57;2.20;;;;;;;;;;5011615;28;20057;-41
2022/07/02 03:26:46;;;;;;;4.00;2.63;;;;;;;;;;5011885;28;20022;-41
2022/07/02 03:29:11;;;;;;;10.07;2.40;;;;;;;;;;5011645;28;20476;-41
2022/07/02 03:31:36;;;;;;;4.72;2.03;;;;;;;;;;5011612;28;20108;-40
2022/07/02 03:34:02;;;;;;;5.85;2.10;;;;;;;;;;5011480;28;20109;-41
2022/07/02 03:36:27;;;;;;;4.22;2.22;;;;;;;;;;5011574;28;20036;-40
2022/07/02 03:38:53;;;;;;;3.33;1.95;;;;;;;;;;5011542;28;20021;-41
2022/07/02 03:41:18;;;;;;;6.00;1.90;;;;;;;;;;5011879;28;20112;-41
2022/07/02 03:43:43;;;;;;;6.68;2.25;;;;;;;;;;5011673;28;20097;-41
2022/07/02 03:46:09;;;;;;;10.13;2.20;;;;;;;;;;5013547;28;20145;-41
2022/07/02 03:48:34;;;;;;;5.75;2.47;;;;;;;;;;5015418;28;20428;-40
2022/07/02 03:51:00;;;;;;;3.58;1.67;;;;;;;;;;5015566;28;20057;-41
2022/07/02 03:53:25;;;;;;;3.53;2.15;;;;;;;;;;5015312;28;20371;-40
2022/07/02 03:55:51;;;;;;;11.13;2.15;;;;;;;;;;5015272;28;20030;-41
2022/07/02 03:58:17;;;;;;;8.20;2.05;;;;;;;;;;5015547;28;20029;-41
2022/07/02 04:00:42;;;;;;;6.57;2.25;;;;;;;;;;5015174;28;20541;-41
2022/07/02 04:03:08;;;;;;;11.25;1.90;;;;;;;;;;5014943;28;20053;-41
2022/07/02 04:05:34;;;;;;;6.00;1.67;;;;;;;;;;5015136;28;20411;-41
2022/07/02 04:07:59;;;;;;;5.57;2.03;;;;;;;;;;5015338;28;20057;-41
2022/07/02 04:10:24;;;;;;;2.83;1.52;;;;;;;;;;5015006;28;20384;-41
2022/07/02 04:12:50;;;;;;;1.95;1.30;;;;;;;;;;5014951;28;20479;-41
2022/07/02 04:15:15;;;;;;;6.32;1.48;;;;;;;;;;5014876;28;20029;-40
2022/07/02 04:17:40;;;;;;;5.60;2.30;;;;;;;;;;5015040;28;20022;-41
2022/07/02 04:20:06;;;;;;;7.45;2.63;;;;;;;;;;5015345;28;20100;-41
2022/07/02 04:22:31;;;;;;;3.15;2.10;;;;;;;;;;5015113;28;20060;-41
2022/07/02 04:24:57;;;;;;;3.22;1.92;;;;;;;;;;5014660;28;20036;-41
2022/07/02 04:27:22;;;;;;;4.25;2.42;;;;;;;;;;5015007;28;20053;-41
2022/07/02 04:29:48;;;;;;;1.63;1.23;;;;;;;;;;5014651;28;20101;-40
2022/07/02 04:32:13;;;;;;;2.35;1.52;;;;;;;;;;5014840;28;20379;-41
2022/07/02 04:34:39;;;;;;;3.38;1.55;;;;;;;;;;5014799;28;20080;-41
2022/07/02 04:37:04;;;;;;;4.40;1.60;;;;;;;;;;5014626;28;20105;-41
2022/07/02 04:39:30;;;;;;;8.57;1.50;;;;;;;;;;5013252;28;20107;-41
2022/07/02 04:41:55;;;;;;;6.05;1.63;;;;;;;;;;5014393;28;20361;-41
2022/07/02 04:44:20;;;;;;;5.13;2.35;;;;;;;;;;5014341;28;20045;-41
2022/07/02 04:46:46;;;;;;;3.30;1.33;;;;;;;;;;5014539;28;20053;-41
2022/07/02 04:49:11;;;;;;;4.82;1.73;;;;;;;;;;5014339;28;20430;-40
2022/07/02 04:51:37;;;;;;;5.53;1.65;;;;;;;;;;5014221;28;20041;-41
2022/07/02 04:54:02;;;;;;;8.23;2.47;;;;;;;;;;5014034;28;20037;-41
2022/07/02 04:56:28;;;;;;;4.05;1.95;;;;;;;;;;5014468;28;20033;-41
2022/07/02 04:58:54;;;;;;;4.10;1.20;;;;;;;;;;5013322;28;20026;-41
2022/07/02 05:01:20;;;;;;;4.78;1.20;;;;;;;;;;5014295;28;20372;-41
2022/07/02 05:03:45;;;;;;;2.35;1.38;;;;;;;;;;5013794;28;20045;-41
2022/07/02 05:06:11;;;;;;;2.45;1.35;;;;;;;;;;5014327;28;20069;-41
2022/07/02 05:08:36;;;;;;;3.25;1.50;;;;;;;;;;5014184;28;20033;-47
2022/07/02 05:11:02;;;;;;;3.05;1.13;;;;;;;;;;5014053;28;20404;-40
2022/07/02 05:13:27;;;;;;;2.00;1.48;;;;;;;;;;5013820;28;20022;-41
2022/07/02 05:15:53;;;;;;;2.90;1.58;;;;;;;;;;5013736;28;20108;-41
2022/07/02 05:18:18;;;;;;;3.42;1.63;;;;;;;;;;5014055;28;20033;-41
2022/07/02 05:20:43;;;;;;;6.45;1.60;;;;;;;;;;5013740;28;20025;-41
2022/07/02 05:23:09;;;;;;;3.88;1.95;;;;;;;;;;5013871;28;20026;-41
2022/07/02 05:25:34;;;;;;;4.28;2.25;;;;;;;;;;5013703;28;20460;-40
2022/07/02 05:28:00;;;;;;;2.15;1.10;;;;;;;;;;5013545;28;20029;-40
2022/07/02 05:30:25;;;;;;;4.45;1.45;;;;;;;;;;5013454;28;20036;-41
2022/07/02 05:32:51;;;;;;;2.35;1.50;;;;;;;;;;5013761;28;20065;-40
2022/07/02 05:35:16;;;;;;;2.95;1.00;;;;;;;;;;5013531;28;20407;-41
2022/07/02 05:37:42;;;;;;;3.05;1.30;;;;;;;;;;5013336;28;20064;-41
2022/07/02 05:40:08;;;;;;;4.60;1.17;;;;;;;;;;5013346;28;20025;-41
2022/07/02 05:42:33;;;;;;;3.35;1.10;;;;;;;;;;5013337;28;20116;-41
2022/07/02 05:44:59;;;;;;;2.80;1.08;;;;;;;;;;5013380;28;20152;-41
2022/07/02 05:47:24;;;;;;;2.83;1.00;;;;;;;;;;5013275;28;20030;-41
2022/07/02 05:49:49;;;;;;;2.13;0.85;;;;;;;;;;5013051;28;20361;-41
2022/07/02 05:52:17;;;;;;;4.53;1.50;;;;;;;;;;5013071;28;20045;-41
2022/07/02 05:54:45;;;;;;;2.55;1.25;;;;;;;;;;5013065;28;20025;-41
2022/07/02 05:57:11;;;;;;;2.35;1.33;;;;;;;;;;5012999;28;20484;-41
2022/07/02 05:59:36;;;;;;;1.20;1.10;;;;;;;;;;5013372;28;20060;-41
2022/07/02 06:02:03;;;;;;;4.55;1.17;;;;;;;;;;5012893;28;20034;-41
2022/07/02 06:04:28;;;;;;;2.78;1.35;;;;;;;;;;5012615;28;20045;-41
2022/07/02 06:09:38;;;;;;;1.33;0.98;;;;;;;;;;5011845;28;20076;-41
2022/07/02 06:12:03;;;;;;;1.48;1.00;;;;;;;;;;5012609;28;20057;-41
2022/07/02 06:14:29;;;;;;;4.80;1.27;;;;;;;;;;5012935;28;20029;-40
2022/07/02 06:16:54;;;;;;;3.03;0.98;;;;;;;;;;5012685;28;20486;-41
2022/07/02 06:19:19;;;;;;;1.95;1.23;;;;;;;;;;5012940;28;20468;-41
2022/07/02 06:21:45;;;;;;;2.75;1.38;;;;;;;;;;5012615;28;20101;-41
2022/07/02 06:24:13;;;;;;;5.93;1.15;;;;;;;;;;5012567;28;20038;-42
2022/07/02 06:26:38;;;;;;;1.67;0.73;;;;;;;;;;5012552;28;20026;-41
2022/07/02 06:29:04;;;;;;;1.92;1.10;;;;;;;;;;5012740;28;20026;-41
2022/07/02 06:31:30;;;;;;;1.80;0.70;;;;;;;;;;5012687;28;20113;-41
2022/07/02 06:33:55;;;;;;;1.73;1.15;;;;;;;;;;5027436;28;20036;-42
2022/07/02 06:36:22;;;;;;;2.53;1.02;;;;;;;;;;5012421;28;20068;-41
2022/07/02 06:38:48;;;;;;;7.85;0.88;;;;;;;;;;5012590;28;20046;-41
2022/07/02 06:43:58;;;;;;;2.20;0.60;;;;;;;;;;5012198;28;20026;-41
2022/07/02 06:46:23;;;;;;;0.85;0.75;;;;;;;;;;5012442;28;20040;-41
2022/07/02 06:48:49;;;;;;;5.70;0.95;;;;;;;;;;5012101;28;20072;-41
2022/07/02 06:51:14;;;;;;;1.77;1.00;;;;;;;;;;5012041;28;20092;-42
2022/07/02 06:53:40;;;;;;;5.03;1.90;;;;;;;;;;5012274;28;20022;-42
2022/07/02 06:56:05;;;;;;;0.98;0.88;;;;;;;;;;5012235;28;20100;-42
2022/07/02 06:58:31;;;;;;;0.80;0.80;;;;;;;;;;5012051;28;20036;-41
2022/07/02 07:00:56;;;;;;;1.48;0.73;;;;;;;;;;5011907;28;20424;-41
2022/07/02 07:03:22;;;;;;;2.15;1.13;;;;;;;;;;5010530;28;20054;-41
2022/07/02 07:05:47;;;;;;;1.10;1.00;;;;;;;;;;5011860;28;20037;-41
2022/07/02 07:08:13;;;;;;;4.00;0.90;;;;;;;;;;5011781;28;20091;-40
2022/07/02 07:10:40;;;;;;;6.50;1.00;;;;;;;;;;5011876;28;20014;-41
2022/07/02 07:13:06;;;;;;;8.30;1.02;;;;;;;;;;5011852;28;20120;-40
2022/07/02 07:15:31;;;;;;;1.73;0.73;;;;;;;;;;5026884;28;20113;-41
2022/07/02 07:17:57;;;;;;;1.75;0.80;;;;;;;;;;5011999;28;20057;-41
2022/07/02 07:20:27;;;;;;;1.10;1.00;;;;;;;;;;5011407;28;20384;-41
2022/07/02 07:22:53;;;;;;;2.05;1.20;;;;;;;;;;5010699;28;20044;-41
2022/07/02 07:25:19;;;;;;;1.38;0.70;;;;;;;;;;5011662;28;20033;-41
2022/07/02 07:27:45;;;;;;;0.88;0.68;;;;;;;;;;5011956;28;20057;-40
2022/07/02 07:30:11;;;;;;;1.50;1.40;;;;;;;;;;5010340;28;20499;-40
2022/07/02 07:32:37;;;;;;;4.57;1.02;;;;;;;;;;5011702;28;20061;-40
2022/07/02 07:35:03;;;;;;;1.27;0.70;;;;;;;;;;5011543;28;20010;-41
2022/07/02 07:37:28;;;;;;;1.38;1.20;;;;;;;;;;5011541;28;20124;-42
2022/07/02 07:39:54;;;;;;;4.53;0.77;;;;;;;;;;5011589;28;20022;-41
2022/07/02 07:42:19;;;;;;;3.33;1.17;;;;;;;;;;5011640;28;20360;-41
2022/07/02 07:44:45;;;;;;;4.10;1.27;;;;;;;;;;5011321;28;20057;-41
2022/07/02 07:47:11;;;;;;;3.05;1.02;;;;;;;;;;5011481;28;20055;-40
2022/07/02 07:49:36;;;;;;;1.33;0.90;;;;;;;;;;5011824;28;20068;-41
2022/07/02 07:52:02;;;;;;;2.90;0.98;;;;;;;;;;5011286;28;20468;-41
2022/07/02 07:54:27;;;;;;;2.15;1.02;;;;;;;;;;5011414;28;20076;-40
2022/07/02 07:56:53;;;;;;;2.85;1.33;;;;;;;;;;5011352;28;20117;-41
2022/07/02 07:59:18;;;;;;;0.82;0.80;;;;;;;;;;5011733;28;20113;-40
2022/07/02 08:01:44;;;;;;;1.88;1.38;;;;;;;;;;5011682;28;20061;-41
2022/07/02 08:04:09;;;;;;;3.13;1.08;;;;;;;;;;5011383;28;20121;-41
2022/07/02 08:06:35;;;;;;;4.18;0.70;;;;;;;;;;5011270;28;20033;-41
2022/07/02 08:09:00;;;;;;;1.67;0.82;;;;;;;;;;5011495;28;20026;-40
2022/07/02 08:11:26;;;;;;;1.42;0.80;;;;;;;;;;5011219;28;20045;-41
2022/07/02 08:13:51;;;;;;;3.05;1.65;;;;;;;;;;5011056;28;20022;-40
2022/07/02 08:16:17;;;;;;;1.40;1.10;;;;;;;;;;5011532;28;20038;-41
2022/07/02 08:18:43;;;;;;;4.72;0.90;;;;;;;;;;5011398;28;20100;-41
2022/07/02 08:21:08;;;;;;;3.75;1.10;;;;;;;;;;5011180;28;20080;-42
2022/07/02 08:23:34;;;;;;;5.93;1.75;;;;;;;;;;5011103;28;20029;-41
2022/07/02 08:25:59;;;;;;;3.00;0.98;;;;;;;;;;5011367;28;20029;-41
2022/07/02 08:28:25;;;;;;;3.15;0.90;;;;;;;;;;5011093;28;20030;-41
2022/07/02 08:30:51;;;;;;;5.15;1.58;;;;;;;;;;5010996;28;20132;-41
2022/07/02 08:33:16;;;;;;;1.33;1.23;;;;;;;;;;5012767;28;20021;-41
2022/07/02 08:35:43;;;;;;;4.32;1.48;;;;;;;;;;5013321;28;20038;-41
2022/07/02 08:38:08;;;;;;;4.15;1.15;;;;;;;;;;5014861;28;20033;-41
2022/07/02 08:40:34;;;;;;;2.38;1.30;;;;;;;;;;5014485;28;20030;-41
2022/07/02 08:43:00;;;;;;;1.48;0.90;;;;;;;;;;5029528;28;20057;-41
2022/07/02 08:45:28;;;;;;;5.63;1.30;;;;;;;;;;5014484;28;20076;-41
2022/07/02 08:47:54;;;;;;;3.50;1.08;;;;;;;;;;5014243;28;20522;-41
2022/07/02 08:50:21;;;;;;;2.33;1.25;;;;;;;;;;5014500;28;20029;-41
2022/07/02 08:52:48;;;;;;;1.35;1.23;;;;;;;;;;5014289;28;20483;-41
2022/07/02 08:55:14;;;;;;;0.70;0.70;;;;;;;;;;5014214;28;20030;-41
2022/07/02 08:57:39;;;;;;;2.80;1.02;;;;;;;;;;5014274;28;20428;-41
2022/07/02 09:00:05;;;;;;;2.08;1.00;;;;;;;;;;5014375;28;20038;-41
2022/07/02 09:02:32;;;;;;;3.53;0.90;;;;;;;;;;5013870;28;20038;-41
2022/07/02 09:04:58;;;;;;;2.00;1.17;;;;;;;;;;5014286;28;20034;-41
2022/07/02 09:07:23;;;;;;;1.38;0.82;;;;;;;;;;5014057;28;20056;-41
2022/07/02 09:09:49;;;;;;;1.77;1.10;;;;;;;;;;5014214;28;20026;-41
2022/07/02 09:12:15;;;;;;;1.50;1.10;;;;;;;;;;5013870;28;20026;-48
2022/07/02 09:14:42;;;;;;;3.35;1.30;;;;;;;;;;5029129;28;20044;-44
2022/07/02 09:17:08;;;;;;;1.23;0.77;;;;;;;;;;5013741;28;20060;-41
2022/07/02 09:19:34;;;;;;;1.33;0.90;;;;;;;;;;5014130;28;20121;-44
2022/07/02 09:22:00;;;;;;;1.30;0.77;;;;;;;;;;5013749;28;20493;-41
2022/07/02 09:24:31;;;;;;;3.05;0.88;;;;;;;;;;5013929;28;20029;-41
2022/07/02 09:27:07;;;;;;;3.47;0.90;;;;;;;;;;5013648;28;20033;-40
2022/07/02 09:29:47;;;;;;;3.85;1.00;;;;;;;;;;5013593;28;20480;-41
2022/07/02 09:32:13;;;;;;;6.20;1.42;;;;;;;;;;5013566;28;20050;-41
2022/07/02 09:34:47;;;;;;;1.67;0.90;;;;;;;;;;5012361;28;20029;-41
2022/07/02 09:37:19;;;;;;;2.60;1.27;;;;;;;;;;5013493;28;20034;-41
2022/07/02 09:39:45;;;;;;;3.17;1.02;;;;;;;;;;5013317;28;20038;-41
2022/07/02 09:42:11;;;;;;;2.92;1.08;;;;;;;;;;5013692;28;20408;-42
2022/07/02 09:44:46;;;;;;;3.67;1.00;;;;;;;;;;5013043;28;20041;-41
2022/07/02 09:47:12;;;;;;;2.47;1.00;;;;;;;;;;5013273;28;20422;-42
2022/07/02 09:49:47;;;;;;;1.33;1.10;;;;;;;;;;5013261;28;20037;-42
2022/07/02 09:52:17;;;;;;;4.60;1.52;;;;;;;;;;5013117;28;20037;-41
2022/07/02 09:54:43;;;;;;;2.10;1.50;;;;;;;;;;5013140;28;20017;-41
2022/07/02 09:57:09;;;;;;;0.65;0.65;;;;;;;;;;5013055;28;20034;-41
2022/07/02 09:59:35;;;;;;;6.43;1.52;;;;;;;;;;5013212;28;20018;-41
2022/07/02 10:02:00;;;;;;;4.18;0.90;;;;;;;;;;5011641;28;20475;-41
2022/07/02 10:04:26;;;;;;;8.00;1.92;;;;;;;;;;5012784;28;20078;-41
2022/07/02 10:06:52;;;;;;;1.10;0.80;;;;;;;;;;5012828;28;20033;-41
2022/07/02 10:09:20;;;;;;;2.72;0.73;;;;;;;;;;5012857;28;20068;-41
2022/07/02 10:11:49;;;;;;;4.88;0.98;;;;;;;;;;5013000;28;20038;-41
2022/07/02 10:14:16;;;;;;;2.22;0.80;;;;;;;;;;5012706;28;20025;-41
2022/07/02 10:16:43;;;;;;;4.18;0.90;;;;;;;;;;5012698;28;20040;-41
2022/07/02 10:19:09;;;;;;;2.70;1.52;;;;;;;;;;5012651;28;20097;-41
2022/07/02 10:21:37;;;;;;;1.40;1.23;;;;;;;;;;5012557;28;20108;-41
2022/07/02 10:24:03;;;;;;;1.85;1.17;;;;;;;;;;5012578;28;20029;-41
2022/07/02 10:26:30;;;;;;;2.10;1.10;;;;;;;;;;5012559;28;20030;-41
2022/07/02 10:28:55;;;;;;;2.08;1.00;;;;;;;;;;5012389;28;20017;-41
2022/07/02 10:31:21;;;;;;;1.65;1.15;;;;;;;;;;5012372;28;20049;-41
2022/07/02 10:33:55;;;;;;;3.13;0.90;;;;;;;;;;5012336;28;20017;-42
2022/07/02 10:36:22;;;;;;;4.50;0.90;;;;;;;;;;5012363;28;20037;-41
2022/07/02 10:38:56;;;;;;;4.10;0.80;;;;;;;;;;5012313;28;20064;-42
2022/07/02 10:41:25;;;;;;;2.97;0.98;;;;;;;;;;5012616;28;20044;-40
2022/07/02 10:43:54;;;;;;;2.13;1.10;;;;;;;;;;5012151;28;20108;-41
2022/07/02 10:46:19;;;;;;;2.00;1.02;;;;;;;;;;5012234;28;20165;-41
2022/07/02 10:48:55;;;;;;;1.17;0.77;;;;;;;;;;5012051;28;20496;-41
2022/07/02 10:51:23;;;;;;;10.48;1.10;;;;;;;;;;5012066;28;20069;-43
2022/07/02 10:53:49;;;;;;;5.60;0.95;;;;;;;;;;5012313;28;20524;-41
2022/07/02 10:56:15;;;;;;;0.60;0.60;;;;;;;;;;5011401;28;20472;-41
2022/07/02 10:58:41;;;;;;;4.57;1.30;;;;;;;;;;5010854;28;20113;-41
2022/07/02 11:01:09;;;;;;;1.10;1.00;;;;;;;;;;5011769;28;20034;-41
2022/07/02 11:03:35;;;;;;;1.55;1.00;;;;;;;;;;5010491;28;20088;-41
2022/07/02 11:06:00;;;;;;;1.30;1.00;;;;;;;;;;5011855;28;20328;-42
2022/07/02 11:08:41;;;;;;;2.35;1.08;;;;;;;;;;5027224;28;20045;-41
2022/07/02 11:11:11;;;;;;;4.53;1.08;;;;;;;;;;5011737;28;20045;-41
2022/07/02 11:13:47;;;;;;;3.13;0.60;;;;;;;;;;5010898;28;20072;-41
2022/07/02 11:16:17;;;;;;;1.45;1.02;;;;;;;;;;5012087;28;20357;-41
2022/07/02 11:18:45;;;;;;;4.32;1.75;;;;;;;;;;5011763;28;20026;-41
2022/07/02 11:21:11;;;;;;;5.30;1.17;;;;;;;;;;5012089;28;20033;-41
2022/07/02 11:23:38;;;;;;;4.97;1.02;;;;;;;;;;5011967;28;20072;-41
2022/07/02 11:26:03;;;;;;;4.50;0.98;;;;;;;;;;5026797;28;20044;-41
2022/07/02 11:28:29;;;;;;;3.25;1.10;;;;;;;;;;5011997;28;20116;-41
2022/07/02 11:30:58;;;;;;;3.15;1.50;;;;;;;;;;5011556;28;20038;-41
2022/07/02 11:33:23;;;;;;;4.18;1.02;;;;;;;;;;5010249;28;20029;-41
2022/07/02 11:35:52;;;;;;;6.47;1.10;;;;;;;;;;5011626;28;20022;-42
2022/07/02 11:38:18;;;;;;;3.22;0.95;;;;;;;;;;5011624;28;20021;-41
2022/07/02 11:40:44;;;;;;;1.70;1.02;;;;;;;;;;5011594;28;20076;-41
2022/07/02 11:43:16;;;;;;;1.63;1.00;;;;;;;;;;5010347;28;20483;-41
2022/07/02 11:45:45;;;;;;;5.75;0.98;;;;;;;;;;5011811;28;20466;-41
2022/07/02 11:48:18;;;;;;;1.20;1.10;;;;;;;;;;5011508;28;20030;-41
2022/07/02 11:50:44;;;;;;;1.65;0.80;;;;;;;;;;5026641;28;20364;-41
2022/07/02 11:53:09;;;;;;;2.40;1.30;;;;;;;;;;5011352;28;20021;-41
2022/07/02 11:55:35;;;;;;;4.72;1.23;;;;;;;;;;5011487;28;20057;-45
2022/07/02 11:58:00;;;;;;;2.58;1.27;;;;;;;;;;5011376;28;20022;-41
2022/07/02 12:00:30;;;;;;;1.73;1.02;;;;;;;;;;5011352;28;20030;-41
2022/07/02 12:02:56;;;;;;;3.80;1.08;;;;;;;;;;5011200;28;20054;-41
2022/07/02 12:05:21;;;;;;;2.75;1.08;;;;;;;;;;5011580;28;20477;-41
2022/07/02 12:07:47;;;;;;;3.72;1.00;;;;;;;;;;5013959;28;20399;-41
2022/07/02 12:10:14;;;;;;;3.13;0.90;;;;;;;;;;5015044;28;20041;-41
2022/07/02 12:12:39;;;;;;;2.05;1.05;;;;;;;;;;5015259;28;20602;-41
2022/07/02 12:15:06;;;;;;;3.22;1.55;;;;;;;;;;5014853;28;20037;-41
2022/07/02 12:17:33;;;;;;;4.97;1.25;;;;;;;;;;5014885;28;20037;-41
2022/07/02 12:19:59;;;;;;;2.47;1.38;;;;;;;;;;5015186;28;20080;-41
2022/07/02 12:22:33;;;;;;;1.50;1.00;;;;;;;;;;5014813;28;20476;-41
2022/07/02 12:24:59;;;;;;;2.08;0.98;;;;;;;;;;5014825;28;20061;-41
2022/07/02 12:27:24;;;;;;;2.67;1.10;;;;;;;;;;5014815;28;20203;-41
2022/07/02 12:29:53;;;;;;;1.98;1.40;;;;;;;;;;5014608;28;20037;-41
2022/07/02 12:32:22;;;;;;;1.65;0.93;;;;;;;;;;5014696;28;20062;-41
2022/07/02 12:34:49;;;;;;;2.83;1.13;;;;;;;;;;5014796;28;20105;-41
2022/07/02 12:37:35;;;;;;;1.90;1.17;;;;;;;;;;5014884;28;20115;-41
2022/07/02 12:40:03;;;;;;;4.95;1.75;;;;;;;;;;5004125;28;20143;-41
2022/07/02 12:42:33;;;;;;;1.23;1.08;;;;;;;;;;5014702;28;20101;-41
2022/07/02 12:45:04;;;;;;;3.80;1.30;;;;;;;;;;5014419;28;20132;-41
2022/07/02 12:47:31;;;;;;;;;;;;;;;;;;5014827;28;20037;-41
2022/07/02 12:50:26;;;;;;;2.55;1.05;;;;;;;;;;5014551;28;19963;-41
2022/07/02 12:52:53;;;;;;;1.90;1.50;;;;;;;;;;5001334;28;20054;-41
2022/07/02 12:55:21;;;;;;;4.45;1.25;;;;;;;;;;5014529;28;20018;-41
2022/07/02 12:57:47;;;;;;;1.10;0.70;;;;;;;;;;5014099;28;20034;-41
2022/07/02 13:00:13;;;;;;;4.60;1.20;;;;;;;;;;5014513;28;20102;-41
2022/07/02 13:02:38;;;;;;;4.07;1.13;;;;;;;;;;5014028;28;20526;-41
2022/07/02 13:05:04;;;;;;;4.07;1.30;;;;;;;;;;5014346;28;20038;-41
2022/07/02 13:07:29;;;;;;;5.32;0.90;;;;;;;;;;5014238;28;20068;-41
2022/07/02 13:09:55;;;;;;;1.98;1.05;;;;;;;;;;5013954;28;20448;-41
2022/07/02 13:12:20;;;;;;;10.20;1.20;;;;;;;;;;5014133;28;20247;-41
2022/07/02 13:14:46;;;;;;;2.75;1.30;;;;;;;;;;5013960;28;20480;-41
2022/07/02 13:17:13;;;;;;;2.83;1.50;;;;;;;;;;5013840;28;20124;-41
2022/07/02 13:19:42;;;;;;;2.65;1.25;;;;;;;;;;5013173;28;20022;-41
2022/07/02 13:22:08;;;;;;;2.83;1.48;;;;;;;;;;5013757;28;20480;-41
2022/07/02 13:24:34;;;;;;;6.72;1.73;;;;;;;;;;5012521;28;20467;-41
2022/07/02 13:27:00;;;;;;;1.00;0.90;;;;;;;;;;5013502;28;20120;-41
2022/07/02 13:29:25;;;;;;;3.78;1.50;;;;;;;;;;5013717;28;20054;-41
2022/07/02 13:31:51;;;;;;;1.23;1.10;;;;;;;;;;5013695;28;20487;-41
2022/07/02 13:34:17;;;;;;;1.58;0.98;;;;;;;;;;5013456;28;20018;-42
2022/07/02 13:36:43;;;;;;;2.05;1.05;;;;;;;;;;5013462;28;20042;-41
2022/07/02 13:39:08;;;;;;;3.90;1.85;;;;;;;;;;5013348;28;20022;-41
2022/07/02 13:41:34;;;;;;;2.33;1.15;;;;;;;;;;5013709;28;20030;-41
2022/07/02 13:43:59;;;;;;;2.70;1.55;;;;;;;;;;5013293;28;20017;-41
2022/07/02 13:46:25;;;;;;;2.25;1.80;;;;;;;;;;5013624;28;20034;-41
2022/07/02 13:48:50;;;;;;;1.40;0.77;;;;;;;;;;5013438;28;20068;-41
2022/07/02 13:51:16;;;;;;;1.90;1.73;;;;;;;;;;5013218;28;20056;-42
2022/07/02 13:53:41;;;;;;;5.50;1.05;;;;;;;;;;5013103;28;20018;-41
2022/07/02 13:56:07;;;;;;;3.42;1.23;;;;;;;;;;5013039;28;20038;-41
2022/07/02 13:58:32;;;;;;;2.40;1.10;;;;;;;;;;5013142;28;20072;-41
2022/07/02 14:00:58;;;;;;;6.53;1.30;;;;;;;;;;5011664;28;20088;-41
2022/07/02 14:03:23;;;;;;;2.55;1.40;;;;;;;;;;5012726;28;20054;-41
2022/07/02 14:05:49;;;;;;;3.75;1.58;;;;;;;;;;5012959;28;20029;-41
2022/07/02 14:08:15;;;;;;;4.13;1.30;;;;;;;;;;5012857;28;20033;-41
2022/07/02 14:10:41;;;;;;;1.75;1.38;;;;;;;;;;5012776;28;20057;-41
2022/07/02 14:13:07;;;;;;;4.63;1.17;;;;;;;;;;5012705;28;20471;-41
2022/07/02 14:15:32;;;;;;;2.10;1.20;;;;;;;;;;5012994;28;20037;-41
2022/07/02 14:17:58;;;;;;;1.45;0.88;;;;;;;;;;5012740;28;20022;-41
2022/07/02 14:20:24;;;;;;;1.92;1.20;;;;;;;;;;5012675;28;20113;-41
2022/07/02 14:22:50;;;;;;;3.13;1.67;;;;;;;;;;5012807;28;20102;-41
2022/07/02 14:25:15;;;;;;;2.08;1.13;;;;;;;;;;5012582;28;20395;-41
2022/07/02 14:27:41;;;;;;;1.13;1.00;;;;;;;;;;5012892;28;20072;-41
2022/07/02 14:30:07;;;;;;;1.10;1.00;;;;;;;;;;5011541;28;20040;-41
2022/07/02 14:32:33;;;;;;;3.35;1.27;;;;;;;;;;5012409;28;20113;-41
2022/07/02 14:34:58;;;;;;;6.55;1.10;;;;;;;;;;5012368;28;20562;-41
2022/07/02 14:37:27;;;;;;;2.25;1.55;;;;;;;;;;5012395;28;20026;-41
2022/07/02 14:39:52;;;;;;;3.33;1.33;;;;;;;;;;5012592;28;20034;-41
2022/07/02 14:42:17;;;;;;;3.50;1.50;;;;;;;;;;5012341;28;20494;-41
2022/07/02 14:44:43;;;;;;;1.13;1.00;;;;;;;;;;5012545;28;20018;-42
2022/07/02 14:47:08;;;;;;;4.85;1.67;;;;;;;;;;5012442;28;20459;-41